Capac, MI (48014)

6:58 AM EDT on September 05, 2015 (GMT -0400)
E Imlay TWP | | Change Station
CLOSE
Current Station
Personal Weather Station
Location: Imlay City, MI
Elevation: 800 ft
Nearby Weather Stations

Elev 800 ft 43.05 °N, 83.01 °W | Updated 40 seconds ago

Fog
Fog
68.9 °F
Feels Like 68.9 °F
N
0.0
Wind Variable Wind from WNW
Gusts 0.0 mph

Today
High -- | Low -- °F
--% Chance of Precip.
Yesterday
High -- | Low -- °F
Precip. -- in
7:00 AM 7:59 PM
Waning Gibbous, 50% visible
Pressure 30.12 in
Visibility 0.2 miles
Clouds Overcast 400 ft
Dew Point 65 °F
Humidity 88%
Rainfall Not available.
Snow Depth Not available.
UV 0 out of 12
Pollen 9.40 out of 12
Air Quality Not available.
Flu Activity Not available.
METAR KD95 051053Z AUTO 00000KT 1/4SM FG OVC004 20/20 A3012 RMK AO2 T01970197
Pressure 30.12 in
Visibility 0.2 miles
Clouds Overcast 400 ft
Dew Point 65 °F
Humidity 88%
Rainfall Not available.
Snow Depth Not available.
UV 0 out of 12
Pollen 9.40 out of 12
Air Quality Not available.
Flu Activity Not available.
METAR KD95 051053Z AUTO 00000KT 1/4SM FG OVC004 20/20 A3012 RMK AO2 T01970197

10-Day Weather Forecast

×

Almanac

Astronomy

Sep. 05, 2015 Rise Set
Actual Time
Civil Twilight
Nautical Twilight
Astronomical Twilight
Moon
Length of Visible Light
Length of Day
Tomorrow will be .
, % of the Moon is Illuminated

Today's Extremes

State Highs State Lows

Community

WunderPhotos

Upload Photos

1,852,439 photos uploaded!

WunderBlogs® & News

Nearby

Air Quality

  Air Quality AQ Index Pollutant
Not available.

Snow Depth

Station Depth Elevation

Earthquake Activity

City Distance Mag. Time & Date
Minimum magnitude displayed is 2.5.

Coastal Water Temperatures

Place Temperature

Stations

Nearby Weather Stations

Station Location Temp. Windchill Dew Point Humidity Wind Precip. Elev Updated Type